Fertile, Minnesota
Current Conditions -  °F | °C
As of 6:15 AM on Monday 24 Nov 2014 (Local Time) from KFSE Reporting Station
Light Snow Light Snow  
Wind Chill: -10°   Ceiling: 1600
Heat Index:   Visibility: 3mi
Dew Point:   Wind: 17mph
Humidity: 92%   Direction: 320°NW
Pressure: 29.55"   Gusts: 23mph
Location:  47.54°N, 96.28°W
Report Text: KFSE 241215Z AUTO 32015G20KT 3SM -SN OVC016 M13/M14 A2955 RMK AO2
Loading
Personal Weather Stations






























Interactive Weather Map New forecast layout! Learn more

10-Day Weather Forecast

Advertisements
Track Severe Weather on mobile